createdAt,value
2018-09-28T00:00:05.816Z,2.80
2018-09-28T00:01:05.876Z,2.40
2018-09-28T00:02:05.933Z,2.50
2018-09-28T00:03:05.992Z,2.50
2018-09-28T00:04:06.050Z,2.40
2018-09-28T00:05:06.111Z,3.00
2018-09-28T00:06:06.166Z,2.80
2018-09-28T00:07:06.224Z,2.80
2018-09-28T00:08:06.285Z,2.80
2018-09-28T00:09:06.342Z,2.80
2018-09-28T00:10:06.401Z,2.60
2018-09-28T00:11:06.458Z,2.90
2018-09-28T00:12:06.517Z,2.60
2018-09-28T00:13:06.574Z,2.40
2018-09-28T00:14:06.634Z,2.50
2018-09-28T00:15:06.692Z,2.70
2018-09-28T00:16:06.750Z,2.40
2018-09-28T00:17:06.807Z,2.60
2018-09-28T00:18:06.867Z,2.70
2018-09-28T00:19:06.924Z,2.40
2018-09-28T00:20:06.982Z,2.60
2018-09-28T00:21:07.045Z,2.60
2018-09-28T00:22:07.099Z,2.60
2018-09-28T00:23:07.161Z,2.60
2018-09-28T00:24:07.215Z,2.70
2018-09-28T00:25:07.275Z,2.90
2018-09-28T00:26:07.458Z,2.60
2018-09-28T00:27:07.391Z,2.80
2018-09-28T00:28:07.450Z,2.70
2018-09-28T00:29:07.507Z,2.60
2018-09-28T00:30:07.565Z,2.50
2018-09-28T00:31:07.624Z,2.50
2018-09-28T00:32:07.682Z,2.50
2018-09-28T00:33:07.740Z,2.70
2018-09-28T00:34:07.798Z,2.50
2018-09-28T00:35:07.856Z,2.60
2018-09-28T00:36:07.915Z,2.70
2018-09-28T00:37:07.973Z,2.70
2018-09-28T00:38:08.031Z,2.60
2018-09-28T00:39:08.090Z,2.80
2018-09-28T00:40:08.148Z,2.40
2018-09-28T00:41:08.206Z,2.50
2018-09-28T00:42:08.264Z,2.50
2018-09-28T00:43:08.322Z,2.70
2018-09-28T00:44:08.380Z,2.70
2018-09-28T00:45:08.439Z,2.70
2018-09-28T00:46:08.496Z,2.50
2018-09-28T00:47:08.556Z,2.50
2018-09-28T00:48:08.613Z,2.80
2018-09-28T00:49:08.671Z,2.70
2018-09-28T00:50:08.728Z,2.50
2018-09-28T00:51:08.787Z,2.40
2018-09-28T00:52:08.846Z,2.70
2018-09-28T00:53:08.904Z,2.70
2018-09-28T00:54:08.962Z,2.50
2018-09-28T00:55:09.021Z,2.50
2018-09-28T00:56:09.079Z,2.70
2018-09-28T00:57:09.387Z,2.70
2018-09-28T00:58:09.195Z,2.80
2018-09-28T00:59:09.252Z,2.40
2018-09-28T01:00:09.310Z,2.60
2018-09-28T01:01:09.369Z,2.50
2018-09-28T01:02:09.427Z,2.40
2018-09-28T01:03:09.485Z,2.50
2018-09-28T01:04:09.548Z,2.60
2018-09-28T01:05:09.602Z,2.80
2018-09-28T01:06:09.660Z,2.60
2018-09-28T01:07:09.719Z,2.40
2018-09-28T01:08:09.776Z,2.50
2018-09-28T01:09:09.834Z,2.70
2018-09-28T01:10:09.892Z,2.50
2018-09-28T01:11:09.950Z,2.80
2018-09-28T01:12:10.012Z,2.60
2018-09-28T01:13:10.066Z,2.30
2018-09-28T01:14:10.123Z,2.30
2018-09-28T01:15:10.183Z,2.50
2018-09-28T01:16:10.241Z,2.70
2018-09-28T01:17:10.299Z,2.50
2018-09-28T01:18:10.357Z,2.70
2018-09-28T01:19:10.415Z,2.70
2018-09-28T01:20:10.474Z,2.30
2018-09-28T01:21:10.532Z,2.50
2018-09-28T01:22:10.590Z,2.90
2018-09-28T01:23:10.649Z,2.60
2018-09-28T01:24:10.706Z,2.40
2018-09-28T01:25:10.764Z,2.20
2018-09-28T01:26:10.821Z,2.40
2018-09-28T01:27:10.882Z,2.70
2018-09-28T01:28:10.938Z,3.00
2018-09-28T01:29:10.997Z,2.50
2018-09-28T01:30:11.054Z,2.70
2018-09-28T01:31:11.111Z,3.10
2018-09-28T01:32:11.170Z,2.70
2018-09-28T01:33:11.230Z,2.50
2018-09-28T01:34:11.289Z,2.60
2018-09-28T01:35:11.346Z,2.40
2018-09-28T01:36:11.402Z,3.00
2018-09-28T01:37:11.998Z,2.80
2018-09-28T01:38:11.517Z,2.70
2018-09-28T01:39:11.575Z,2.50
2018-09-28T01:40:11.632Z,2.70
2018-09-28T01:41:11.693Z,2.60
2018-09-28T01:42:11.748Z,2.70
2018-09-28T01:43:11.807Z,2.80
2018-09-28T01:44:11.865Z,2.60
2018-09-28T01:45:11.923Z,2.50
2018-09-28T01:46:11.981Z,2.50
2018-09-28T01:47:12.039Z,2.50
2018-09-28T01:48:12.096Z,2.40
2018-09-28T01:49:12.168Z,2.60
2018-09-28T01:50:12.212Z,2.80
2018-09-28T01:51:12.269Z,2.50
2018-09-28T01:52:12.330Z,2.70
2018-09-28T01:53:12.384Z,2.40
2018-09-28T01:54:12.442Z,2.60
2018-09-28T01:55:12.500Z,2.60
2018-09-28T01:56:12.558Z,2.50
2018-09-28T01:57:12.616Z,2.30
2018-09-28T01:58:12.674Z,2.50
2018-09-28T01:59:12.731Z,2.40
2018-09-28T02:00:12.789Z,2.50
2018-09-28T02:01:12.853Z,2.50
2018-09-28T02:02:12.905Z,2.70
2018-09-28T02:03:12.963Z,2.70
2018-09-28T02:04:13.021Z,2.60
2018-09-28T02:05:13.083Z,2.50
2018-09-28T02:06:13.136Z,2.60
2018-09-28T02:07:13.194Z,2.70
2018-09-28T02:08:13.503Z,2.60
2018-09-28T02:09:13.310Z,3.00
2018-09-28T02:10:13.367Z,2.80
2018-09-28T02:11:13.425Z,2.60
2018-09-28T02:12:13.483Z,2.70
2018-09-28T02:13:13.543Z,2.70
2018-09-28T02:14:13.598Z,2.60
2018-09-28T02:15:13.656Z,2.70
2018-09-28T02:16:13.713Z,2.80
2018-09-28T02:17:13.775Z,2.60
2018-09-28T02:18:13.829Z,2.50
2018-09-28T02:19:13.887Z,2.90
2018-09-28T02:20:13.945Z,2.90
2018-09-28T02:21:14.003Z,2.80
2018-09-28T02:22:14.061Z,2.70
2018-09-28T02:23:14.118Z,2.70
2018-09-28T02:24:14.180Z,2.90
2018-09-28T02:25:14.234Z,2.70
2018-09-28T02:26:14.291Z,2.70
2018-09-28T02:27:14.350Z,2.60
2018-09-28T02:28:14.408Z,2.80
2018-09-28T02:29:14.466Z,2.60
2018-09-28T02:30:14.523Z,2.60
2018-09-28T02:31:14.581Z,2.40
2018-09-28T02:32:14.638Z,2.90
2018-09-28T02:33:14.696Z,2.90
2018-09-28T02:34:14.754Z,3.10
2018-09-28T02:35:14.814Z,3.50
2018-09-28T02:36:14.871Z,3.50
2018-09-28T02:37:14.928Z,3.80
2018-09-28T02:38:14.986Z,3.60
2018-09-28T02:39:15.045Z,3.30
2018-09-28T02:40:15.102Z,3.90
2018-09-28T02:41:15.163Z,3.90
2018-09-28T02:42:15.216Z,2.80
2018-09-28T02:43:15.276Z,2.60
2018-09-28T02:44:15.584Z,2.80
2018-09-28T02:45:15.392Z,2.90
2018-09-28T02:46:15.448Z,2.90
2018-09-28T02:47:15.507Z,3.30
2018-09-28T02:48:15.566Z,3.40
2018-09-28T02:49:15.622Z,2.70
2018-09-28T02:50:15.681Z,2.50
2018-09-28T02:51:15.738Z,3.00
2018-09-28T02:52:15.797Z,2.50
2018-09-28T02:53:15.854Z,2.70
2018-09-28T02:54:15.911Z,3.10
2018-09-28T02:55:15.970Z,2.60
2018-09-28T02:56:16.028Z,2.70
2018-09-28T02:57:16.086Z,2.50
2018-09-28T02:58:16.143Z,2.70
2018-09-28T02:59:16.212Z,2.70
2018-09-28T03:00:16.261Z,3.00
2018-09-28T03:01:16.324Z,2.80
2018-09-28T03:02:16.374Z,2.60
2018-09-28T03:03:16.435Z,2.60
2018-09-28T03:04:16.489Z,2.90
2018-09-28T03:05:16.548Z,2.50
2018-09-28T03:06:16.661Z,2.80
2018-09-28T03:07:16.663Z,2.70
2018-09-28T03:08:16.723Z,2.80
2018-09-28T03:09:16.779Z,2.50
2018-09-28T03:10:16.837Z,3.20
2018-09-28T03:11:16.894Z,2.80
2018-09-28T03:12:16.954Z,3.70
2018-09-28T03:13:17.011Z,3.90
2018-09-28T03:14:17.067Z,3.40
2018-09-28T03:15:17.126Z,3.30
2018-09-28T03:16:17.188Z,2.90
2018-09-28T03:17:17.242Z,3.10
2018-09-28T03:18:17.298Z,2.50
2018-09-28T03:19:17.357Z,3.30
2018-09-28T03:20:17.416Z,3.10
2018-09-28T03:21:17.472Z,3.10
2018-09-28T03:22:17.529Z,3.60
2018-09-28T03:23:17.588Z,3.40
2018-09-28T03:24:17.646Z,3.90
2018-09-28T03:25:17.704Z,4.10
2018-09-28T03:26:17.760Z,3.80
2018-09-28T03:27:17.819Z,4.50
2018-09-28T03:28:17.877Z,3.20
2018-09-28T03:29:18.186Z,4.30
2018-09-28T03:30:17.992Z,3.40
2018-09-28T03:31:18.050Z,3.80
2018-09-28T03:32:18.114Z,3.70
2018-09-28T03:33:18.165Z,3.80
2018-09-28T03:34:18.275Z,3.70
2018-09-28T03:35:18.281Z,4.30
2018-09-28T03:36:18.339Z,4.60
2018-09-28T03:37:18.407Z,4.50
2018-09-28T03:38:18.475Z,3.70
2018-09-28T03:39:18.616Z,4.00
2018-09-28T03:40:18.569Z,3.00
2018-09-28T03:41:19.032Z,3.10
2018-09-28T03:42:18.684Z,3.40
2018-09-28T03:43:18.756Z,3.20
2018-09-28T03:44:18.806Z,3.50
2018-09-28T03:45:18.858Z,3.10
2018-09-28T03:46:18.920Z,2.90
2018-09-28T03:47:18.978Z,2.80
2018-09-28T03:48:19.032Z,3.00
2018-09-28T03:49:19.091Z,3.30
2018-09-28T03:50:19.147Z,3.10
2018-09-28T03:51:19.205Z,2.70
2018-09-28T03:52:19.264Z,3.20
2018-09-28T03:53:19.866Z,2.80
2018-09-28T03:54:19.379Z,3.10
2018-09-28T03:55:19.436Z,2.70
2018-09-28T03:56:19.494Z,3.40
2018-09-28T03:57:19.553Z,3.80
2018-09-28T03:58:19.610Z,3.60
2018-09-28T03:59:19.670Z,3.70
2018-09-28T04:00:19.727Z,4.30
2018-09-28T04:01:20.639Z,3.50
2018-09-28T04:02:20.461Z,4.10
2018-09-28T04:03:20.550Z,3.40
2018-09-28T04:04:20.623Z,4.00
2018-09-28T04:05:20.014Z,3.50
2018-09-28T04:06:20.072Z,4.70
2018-09-28T04:07:20.129Z,4.50
2018-09-28T04:08:20.187Z,4.00
2018-09-28T04:09:20.245Z,4.20
2018-09-28T04:10:20.303Z,4.30
2018-09-28T04:11:21.027Z,3.60
2018-09-28T04:12:21.056Z,3.40
2018-09-28T04:13:20.475Z,3.20
2018-09-28T04:14:20.535Z,3.20
2018-09-28T04:15:20.593Z,3.00
2018-09-28T04:16:20.652Z,3.00
2018-09-28T04:17:20.707Z,2.90
2018-09-28T04:18:20.764Z,3.10
2018-09-28T04:19:21.411Z,2.70
2018-09-28T04:20:20.880Z,3.00
2018-09-28T04:21:20.939Z,2.80
2018-09-28T04:22:20.996Z,3.20
2018-09-28T04:23:21.054Z,2.90
2018-09-28T04:24:21.111Z,3.00
2018-09-28T04:25:21.175Z,2.90
2018-09-28T04:26:21.226Z,2.90
2018-09-28T04:27:21.283Z,3.00
2018-09-28T04:28:21.342Z,2.70
2018-09-28T04:29:21.399Z,3.00
2018-09-28T04:30:21.457Z,3.10
2018-09-28T04:31:21.512Z,3.10
2018-09-28T04:32:21.572Z,3.30
2018-09-28T04:33:21.629Z,3.10
2018-09-28T04:34:21.687Z,3.00
2018-09-28T04:35:21.745Z,3.70
2018-09-28T04:36:21.802Z,3.40
2018-09-28T04:37:22.317Z,3.40
2018-09-28T04:38:21.916Z,3.20
2018-09-28T04:39:21.974Z,3.80
2018-09-28T04:40:22.037Z,3.60
2018-09-28T04:41:22.094Z,3.20
2018-09-28T04:42:22.152Z,3.00
2018-09-28T04:43:22.210Z,3.20
2018-09-28T04:44:22.261Z,3.30
2018-09-28T04:45:22.335Z,3.60
2018-09-28T04:46:22.377Z,3.10
2018-09-28T04:47:22.434Z,3.40
2018-09-28T04:48:22.491Z,3.10
2018-09-28T04:49:22.549Z,3.50
2018-09-28T04:50:22.606Z,3.90
2018-09-28T04:51:22.683Z,4.20
2018-09-28T04:52:22.723Z,4.40
2018-09-28T04:53:22.781Z,3.30
2018-09-28T04:54:22.839Z,3.30
2018-09-28T04:55:23.348Z,3.20
2018-09-28T04:56:22.952Z,3.30
2018-09-28T04:57:23.012Z,3.80
2018-09-28T04:58:23.067Z,3.50
2018-09-28T04:59:23.126Z,3.60
2018-09-28T05:00:23.230Z,3.50
2018-09-28T05:01:23.240Z,3.40
2018-09-28T05:02:23.297Z,3.70
2018-09-28T05:03:23.355Z,3.50
2018-09-28T05:04:23.412Z,3.20
2018-09-28T05:05:23.471Z,3.10
2018-09-28T05:06:23.527Z,3.80
2018-09-28T05:07:23.643Z,3.50
2018-09-28T05:08:23.645Z,3.70
2018-09-28T05:09:23.701Z,3.40
2018-09-28T05:10:23.757Z,3.50
2018-09-28T05:11:23.816Z,4.00
2018-09-28T05:12:23.874Z,4.00
2018-09-28T05:13:23.932Z,3.80
2018-09-28T05:14:23.988Z,4.30
2018-09-28T05:15:24.046Z,4.00
2018-09-28T05:16:24.103Z,4.20
2018-09-28T05:17:24.162Z,4.10
2018-09-28T05:18:24.217Z,4.10
2018-09-28T05:19:24.280Z,3.60
2018-09-28T05:20:24.336Z,3.60
2018-09-28T05:21:24.397Z,3.40
2018-09-28T05:22:24.811Z,3.90
2018-09-28T05:23:24.525Z,3.40
2018-09-28T05:24:24.565Z,3.50
2018-09-28T05:25:24.681Z,3.90
2018-09-28T05:26:24.678Z,4.10
2018-09-28T05:27:24.736Z,3.70
2018-09-28T05:28:24.794Z,3.60
2018-09-28T05:29:24.853Z,4.00
2018-09-28T05:30:24.909Z,3.40
2018-09-28T05:31:25.066Z,3.60
2018-09-28T05:32:25.205Z,3.70
2018-09-28T05:33:25.083Z,4.20
2018-09-28T05:34:25.139Z,4.20
2018-09-28T05:35:25.198Z,4.80
2018-09-28T05:36:25.257Z,4.60
2018-09-28T05:37:25.315Z,3.90
2018-09-28T05:38:25.371Z,4.00
2018-09-28T05:39:25.480Z,4.00
2018-09-28T05:40:26.076Z,3.20
2018-09-28T05:41:25.543Z,3.50
2018-09-28T05:42:25.600Z,3.10
2018-09-28T05:43:25.658Z,3.70
2018-09-28T05:44:25.719Z,3.40
2018-09-28T05:45:25.774Z,3.50
2018-09-28T05:46:25.841Z,4.00
2018-09-28T05:47:25.889Z,4.50
2018-09-28T05:48:26.647Z,3.90
2018-09-28T05:49:26.636Z,3.80
2018-09-28T05:50:26.798Z,3.90
2018-09-28T05:51:27.149Z,3.70
2018-09-28T05:52:26.855Z,3.80
2018-09-28T05:53:26.235Z,3.60
2018-09-28T05:54:26.291Z,3.60
2018-09-28T05:55:26.349Z,3.90
2018-09-28T05:56:26.407Z,4.80
2018-09-28T05:57:26.465Z,4.30
2018-09-28T05:58:26.528Z,5.10
2018-09-28T05:59:26.580Z,5.00
2018-09-28T06:00:26.638Z,5.80
2018-09-28T06:01:26.696Z,5.10
2018-09-28T06:02:26.754Z,5.40
2018-09-28T06:03:26.817Z,4.20
2018-09-28T06:04:26.870Z,3.50
2018-09-28T06:05:26.988Z,4.70
2018-09-28T06:06:26.985Z,5.40
2018-09-28T06:07:27.042Z,5.60
2018-09-28T06:08:27.100Z,5.90
2018-09-28T06:09:27.158Z,5.10
2018-09-28T06:10:27.217Z,4.90
2018-09-28T06:11:27.272Z,4.00
2018-09-28T06:12:27.331Z,5.10
2018-09-28T06:13:27.394Z,4.30
2018-09-28T06:14:27.446Z,4.40
2018-09-28T06:15:27.504Z,4.80
2018-09-28T06:16:27.565Z,4.90
2018-09-28T06:17:27.647Z,5.00
2018-09-28T06:18:27.714Z,5.70
2018-09-28T06:19:27.735Z,5.50
2018-09-28T06:20:27.793Z,4.90
2018-09-28T06:21:27.851Z,4.70
2018-09-28T06:22:27.908Z,4.60
2018-09-28T06:23:27.966Z,4.30
2018-09-28T06:24:28.031Z,4.30
2018-09-28T06:25:28.083Z,4.90
2018-09-28T06:26:28.139Z,3.90
2018-09-28T06:27:28.198Z,5.00
2018-09-28T06:28:28.254Z,3.90
2018-09-28T06:29:28.313Z,4.80
2018-09-28T06:30:28.372Z,4.10
2018-09-28T06:31:28.429Z,4.10
2018-09-28T06:32:28.487Z,4.10
2018-09-28T06:33:28.551Z,3.90
2018-09-28T06:34:28.614Z,4.20
2018-09-28T06:35:28.710Z,3.60
2018-09-28T06:36:28.723Z,4.10
2018-09-28T06:37:28.775Z,4.10
2018-09-28T06:38:28.835Z,3.70
2018-09-28T06:39:28.892Z,3.90
2018-09-28T06:40:28.949Z,3.80
2018-09-28T06:41:29.008Z,3.70
2018-09-28T06:42:29.134Z,3.80
2018-09-28T06:43:29.123Z,3.40
2018-09-28T06:44:29.184Z,4.00
2018-09-28T06:45:29.936Z,4.40
2018-09-28T06:46:29.929Z,4.10
2018-09-28T06:47:30.239Z,3.90
2018-09-28T06:48:30.669Z,3.60
2018-09-28T06:49:30.105Z,3.90
2018-09-28T06:50:30.152Z,5.10
2018-09-28T06:51:30.298Z,4.30
2018-09-28T06:52:30.430Z,4.00
2018-09-28T06:53:30.355Z,4.90
2018-09-28T06:54:30.492Z,4.70
2018-09-28T06:55:30.464Z,4.70
2018-09-28T06:56:30.514Z,5.10
2018-09-28T06:57:30.705Z,5.20
2018-09-28T06:58:29.994Z,5.00
2018-09-28T06:59:30.050Z,5.60
2018-09-28T07:00:30.106Z,5.00
2018-09-28T07:01:30.165Z,5.30
2018-09-28T07:02:30.221Z,5.50
2018-09-28T07:03:30.282Z,5.00
2018-09-28T07:04:30.338Z,5.80
2018-09-28T07:05:30.397Z,5.50
2018-09-28T07:06:30.454Z,5.20
2018-09-28T07:07:30.514Z,5.10
2018-09-28T07:08:30.571Z,5.10
2018-09-28T07:09:30.723Z,5.00
2018-09-28T07:10:30.687Z,5.10
2018-09-28T07:11:30.744Z,5.10
2018-09-28T07:12:30.803Z,5.60
2018-09-28T07:13:30.892Z,5.80
2018-09-28T07:14:30.919Z,6.10
2018-09-28T07:15:30.976Z,5.70
2018-09-28T07:16:31.046Z,6.10
2018-09-28T07:17:31.096Z,5.90
2018-09-28T07:18:31.151Z,5.30
2018-09-28T07:19:31.208Z,5.50
2018-09-28T07:20:31.268Z,5.50
2018-09-28T07:21:31.341Z,5.70
2018-09-28T07:22:31.385Z,6.60
2018-09-28T07:23:31.442Z,5.70
2018-09-28T07:24:31.506Z,5.50
2018-09-28T07:25:31.559Z,5.60
2018-09-28T07:26:31.616Z,5.10
2018-09-28T07:27:34.031Z,5.80
2018-09-28T07:28:31.742Z,5.40
2018-09-28T07:29:31.792Z,5.50
2018-09-28T07:30:31.850Z,6.30
2018-09-28T07:31:31.910Z,6.00
2018-09-28T07:32:31.967Z,5.60
2018-09-28T07:33:32.027Z,6.40
2018-09-28T07:34:32.084Z,5.50
2018-09-28T07:35:33.315Z,6.10
2018-09-28T07:36:32.397Z,6.40
2018-09-28T07:37:32.261Z,6.30
2018-09-28T07:38:32.319Z,5.80
2018-09-28T07:39:32.378Z,5.20
2018-09-28T07:40:32.437Z,5.30
2018-09-28T07:41:32.495Z,5.00
2018-09-28T07:42:32.651Z,5.50
2018-09-28T07:43:33.151Z,5.40
2018-09-28T07:44:32.671Z,5.30
2018-09-28T07:45:32.731Z,5.50
2018-09-28T07:46:32.810Z,5.80
2018-09-28T07:47:32.848Z,5.60
2018-09-28T07:48:32.911Z,5.40
2018-09-28T07:49:32.966Z,5.20
2018-09-28T07:50:33.025Z,5.80
2018-09-28T07:51:33.452Z,5.70
2018-09-28T07:52:33.409Z,5.50
2018-09-28T07:53:33.220Z,5.30
2018-09-28T07:54:33.261Z,6.30
2018-09-28T07:55:33.320Z,6.10
2018-09-28T07:56:33.380Z,5.80
2018-09-28T07:57:33.438Z,6.00
2018-09-28T07:58:33.498Z,6.40
2018-09-28T07:59:33.560Z,5.80
2018-09-28T08:00:33.619Z,6.50
2018-09-28T08:01:33.675Z,5.90
2018-09-28T08:02:33.770Z,6.10
2018-09-28T08:03:33.794Z,5.70
2018-09-28T08:04:33.854Z,6.30
2018-09-28T08:05:33.913Z,6.50
2018-09-28T08:06:33.972Z,6.30
2018-09-28T08:07:34.029Z,6.20
2018-09-28T08:08:34.090Z,6.00
2018-09-28T08:09:34.147Z,6.50
2018-09-28T08:10:34.206Z,6.30
2018-09-28T08:11:34.265Z,6.20
2018-09-28T08:12:34.933Z,6.60
2018-09-28T08:13:34.385Z,6.20
2018-09-28T08:14:34.442Z,6.20
2018-09-28T08:15:34.503Z,5.90
2018-09-28T08:16:34.562Z,7.20
2018-09-28T08:17:34.620Z,6.80
2018-09-28T08:18:34.678Z,6.80
2018-09-28T08:19:34.737Z,6.90
2018-09-28T08:20:34.797Z,7.40
2018-09-28T08:21:34.855Z,7.20
2018-09-28T08:22:34.913Z,6.70
2018-09-28T08:23:34.977Z,6.90
2018-09-28T08:24:35.043Z,6.90
2018-09-28T08:25:35.093Z,6.30
2018-09-28T08:26:35.152Z,7.00
2018-09-28T08:27:35.208Z,6.90
2018-09-28T08:28:35.268Z,7.00
2018-09-28T08:29:35.327Z,6.70
2018-09-28T08:30:35.435Z,7.10
2018-09-28T08:31:35.446Z,6.50
2018-09-28T08:32:35.509Z,6.50
2018-09-28T08:33:35.566Z,6.40
2018-09-28T08:34:35.622Z,6.80
2018-09-28T08:35:35.681Z,6.60
2018-09-28T08:36:35.768Z,6.80
2018-09-28T08:37:35.799Z,6.50
2018-09-28T08:38:35.858Z,6.40
2018-09-28T08:39:35.919Z,5.80
2018-09-28T08:40:36.284Z,6.60
2018-09-28T08:41:36.035Z,6.60
2018-09-28T08:42:36.094Z,6.20
2018-09-28T08:43:36.159Z,6.30
2018-09-28T08:44:36.215Z,6.80
2018-09-28T08:45:36.271Z,5.80
2018-09-28T08:46:36.332Z,6.50
2018-09-28T08:47:36.390Z,5.70
2018-09-28T08:48:36.448Z,6.50
2018-09-28T08:49:36.508Z,6.40
2018-09-28T08:50:36.566Z,6.40
2018-09-28T08:51:36.625Z,6.10
2018-09-28T08:52:36.686Z,5.80
2018-09-28T08:53:36.995Z,6.10
2018-09-28T08:54:36.803Z,5.50
2018-09-28T08:55:36.862Z,6.00
2018-09-28T08:56:36.922Z,5.40
2018-09-28T08:57:36.980Z,5.20
2018-09-28T08:58:37.041Z,5.70
2018-09-28T08:59:37.100Z,5.30
2018-09-28T09:00:37.160Z,5.70
2018-09-28T09:01:37.218Z,5.80
2018-09-28T09:02:37.277Z,5.40
2018-09-28T09:03:37.337Z,5.40
2018-09-28T09:04:37.397Z,5.60
2018-09-28T09:05:37.456Z,6.20
2018-09-28T09:06:37.516Z,5.50
2018-09-28T09:07:37.575Z,5.30
2018-09-28T09:08:37.634Z,5.40
2018-09-28T09:09:38.154Z,5.60
2018-09-28T09:10:37.756Z,5.50
2018-09-28T09:11:37.816Z,5.50
2018-09-28T09:12:37.874Z,5.70
2018-09-28T09:13:37.936Z,6.10
2018-09-28T09:14:37.992Z,5.50
2018-09-28T09:15:38.052Z,4.90
2018-09-28T09:16:38.113Z,5.40
2018-09-28T09:17:38.172Z,5.20
2018-09-28T09:18:38.232Z,5.20
2018-09-28T09:19:38.292Z,5.20
2018-09-28T09:20:38.353Z,4.80
2018-09-28T09:21:38.412Z,5.00
2018-09-28T09:22:38.472Z,4.80
2018-09-28T09:23:38.533Z,5.30
2018-09-28T09:24:38.592Z,5.30
2018-09-28T09:25:38.653Z,5.10
2018-09-28T09:26:39.311Z,4.90
2018-09-28T09:27:38.773Z,5.30
2018-09-28T09:28:38.832Z,5.00
2018-09-28T09:29:38.894Z,5.20
2018-09-28T09:30:38.954Z,4.90
2018-09-28T09:31:39.015Z,4.40
2018-09-28T09:32:39.074Z,4.70
2018-09-28T09:33:39.135Z,4.80
2018-09-28T09:34:39.194Z,4.90
2018-09-28T09:35:39.458Z,5.10
2018-09-28T09:36:39.373Z,4.80
2018-09-28T09:37:39.379Z,4.60
2018-09-28T09:38:39.439Z,5.30
2018-09-28T09:39:39.500Z,5.10
2018-09-28T09:40:39.565Z,5.00
2018-09-28T09:41:39.624Z,5.50
2018-09-28T09:42:39.754Z,5.40
2018-09-28T09:43:39.747Z,5.30
2018-09-28T09:44:39.863Z,5.20
2018-09-28T09:45:39.870Z,5.30
2018-09-28T09:46:39.931Z,5.60
2018-09-28T09:47:39.995Z,5.40
2018-09-28T09:48:40.057Z,4.90
2018-09-28T09:49:40.118Z,5.40
2018-09-28T09:50:40.180Z,5.40
2018-09-28T09:51:40.244Z,5.80
2018-09-28T09:52:40.306Z,5.60
2018-09-28T09:53:40.369Z,5.60
2018-09-28T09:54:40.431Z,5.60
2018-09-28T09:55:40.493Z,5.70
2018-09-28T09:56:40.557Z,5.60
2018-09-28T09:57:40.648Z,6.90
2018-09-28T09:58:40.682Z,6.10
2018-09-28T09:59:40.745Z,6.00
2018-09-28T10:00:40.808Z,5.50
2018-09-28T10:01:40.873Z,6.10
2018-09-28T10:02:40.935Z,6.20
2018-09-28T10:03:41.001Z,6.20
2018-09-28T10:04:41.063Z,6.20
2018-09-28T10:05:41.437Z,6.30
2018-09-28T10:06:41.190Z,6.20
2018-09-28T10:07:41.253Z,6.20
2018-09-28T10:08:41.321Z,6.20
2018-09-28T10:09:41.428Z,5.50
2018-09-28T10:10:41.444Z,5.90
2018-09-28T10:11:41.508Z,7.70
2018-09-28T10:12:41.581Z,7.30
2018-09-28T10:13:42.329Z,7.20
2018-09-28T10:14:41.699Z,7.70
2018-09-28T10:15:41.763Z,6.50
2018-09-28T10:16:42.028Z,6.20
2018-09-28T10:17:41.891Z,5.70
2018-09-28T10:18:42.566Z,5.90
2018-09-28T10:19:42.081Z,5.90
2018-09-28T10:20:42.082Z,5.80
2018-09-28T10:21:42.199Z,5.80
2018-09-28T10:22:42.216Z,5.80
2018-09-28T10:23:42.280Z,5.20
2018-09-28T10:24:42.651Z,5.70
2018-09-28T10:25:42.404Z,5.70
2018-09-28T10:26:42.466Z,6.30
2018-09-28T10:27:42.626Z,6.90
2018-09-28T10:28:44.032Z,7.90
2018-09-28T10:29:42.659Z,8.10
2018-09-28T10:30:42.723Z,7.70
2018-09-28T10:31:42.787Z,8.00
2018-09-28T10:32:42.852Z,8.20
2018-09-28T10:33:43.033Z,8.60
2018-09-28T10:34:43.047Z,7.90
2018-09-28T10:35:43.043Z,7.70
2018-09-28T10:36:43.106Z,7.60
2018-09-28T10:37:43.171Z,9.10
2018-09-28T10:38:43.234Z,8.00
2018-09-28T10:39:43.477Z,9.00
2018-09-28T10:40:43.530Z,8.80
2018-09-28T10:41:43.428Z,9.50
2018-09-28T10:42:43.491Z,9.00
2018-09-28T10:43:43.557Z,11.00
2018-09-28T10:44:43.620Z,10.50
2018-09-28T10:45:43.715Z,10.30
2018-09-28T10:46:43.869Z,10.50
2018-09-28T10:47:43.814Z,11.30
2018-09-28T10:48:43.880Z,11.20
2018-09-28T10:49:43.945Z,10.70
2018-09-28T10:50:44.011Z,10.80
2018-09-28T10:51:44.151Z,11.70
2018-09-28T10:52:44.308Z,11.70
2018-09-28T10:53:44.207Z,11.30
2018-09-28T10:54:44.276Z,11.20
2018-09-28T10:55:44.337Z,10.70
2018-09-28T10:56:44.404Z,11.60
2018-09-28T10:57:44.471Z,10.60
2018-09-28T10:58:44.562Z,12.10
2018-09-28T10:59:44.601Z,11.50
2018-09-28T11:00:44.667Z,11.40
2018-09-28T11:01:44.733Z,10.60
2018-09-28T11:02:44.798Z,12.20
2018-09-28T11:03:44.915Z,11.50
2018-09-28T11:04:45.069Z,12.20
2018-09-28T11:05:44.995Z,11.80
2018-09-28T11:06:45.060Z,12.00
2018-09-28T11:07:45.128Z,11.60
2018-09-28T11:08:45.192Z,12.00
2018-09-28T11:09:45.337Z,11.60
2018-09-28T11:10:45.359Z,11.60
2018-09-28T11:11:45.389Z,12.00
2018-09-28T11:12:45.456Z,11.20
2018-09-28T11:13:45.520Z,11.40
2018-09-28T11:14:45.585Z,10.60
2018-09-28T11:15:45.688Z,10.70
2018-09-28T11:16:45.717Z,10.40
2018-09-28T11:17:45.787Z,11.00
2018-09-28T11:18:45.901Z,10.70
2018-09-28T11:19:45.911Z,11.50
2018-09-28T11:20:45.977Z,11.40
2018-09-28T11:21:46.112Z,11.30
2018-09-28T11:22:46.198Z,11.20
2018-09-28T11:23:46.180Z,11.10
2018-09-28T11:24:46.239Z,11.00
2018-09-28T11:25:46.303Z,11.20
2018-09-28T11:26:46.369Z,10.60
2018-09-28T11:27:46.534Z,11.50
2018-09-28T11:28:46.500Z,11.80
2018-09-28T11:29:46.873Z,11.40
2018-09-28T11:30:46.628Z,11.40
2018-09-28T11:31:46.694Z,10.40
2018-09-28T11:32:46.758Z,11.10
2018-09-28T11:33:46.907Z,11.00
2018-09-28T11:34:46.893Z,11.70
2018-09-28T11:35:46.955Z,10.40
2018-09-28T11:36:47.021Z,10.60
2018-09-28T11:37:47.116Z,10.50
2018-09-28T11:38:47.152Z,10.80
2018-09-28T11:39:47.254Z,11.20
2018-09-28T11:40:47.281Z,10.90
2018-09-28T11:41:47.349Z,11.00
2018-09-28T11:42:47.735Z,10.80
2018-09-28T11:43:47.478Z,9.10
2018-09-28T11:44:47.551Z,9.90
2018-09-28T11:45:47.672Z,9.40
2018-09-28T11:46:47.672Z,9.80
2018-09-28T11:47:47.738Z,9.80
2018-09-28T11:48:47.803Z,10.20
2018-09-28T11:49:47.868Z,9.70
2018-09-28T11:50:47.933Z,9.80
2018-09-28T11:51:48.065Z,9.00
2018-09-28T11:52:48.560Z,8.70
2018-09-28T11:53:48.127Z,9.80
2018-09-28T11:54:48.191Z,9.90
2018-09-28T11:55:48.255Z,9.30
2018-09-28T11:56:48.319Z,9.30
2018-09-28T11:57:48.443Z,8.80
2018-09-28T11:58:48.446Z,8.60
2018-09-28T11:59:48.511Z,8.50
2018-09-28T12:00:48.576Z,7.90
2018-09-28T12:01:48.641Z,7.30
2018-09-28T12:02:48.702Z,6.90
2018-09-28T12:03:48.900Z,7.50
2018-09-28T12:04:48.830Z,7.70
2018-09-28T12:05:48.894Z,7.20
2018-09-28T12:06:49.077Z,7.30
2018-09-28T12:07:49.026Z,8.10
2018-09-28T12:08:49.088Z,8.00
2018-09-28T12:09:49.770Z,7.80
2018-09-28T12:10:49.245Z,8.60
2018-09-28T12:11:49.273Z,8.10
2018-09-28T12:12:49.398Z,7.70
2018-09-28T12:13:49.535Z,7.40
2018-09-28T12:14:49.461Z,8.00
2018-09-28T12:15:49.561Z,7.60
2018-09-28T12:16:49.586Z,7.00
2018-09-28T12:17:49.648Z,6.30
2018-09-28T12:18:49.806Z,7.10
2018-09-28T12:19:49.776Z,6.70
2018-09-28T12:20:49.838Z,7.20
2018-09-28T12:21:49.980Z,7.60
2018-09-28T12:22:49.981Z,7.80
2018-09-28T12:23:50.025Z,7.00
2018-09-28T12:24:50.152Z,7.90
2018-09-28T12:25:50.353Z,8.20
2018-09-28T12:26:50.213Z,8.10
2018-09-28T12:27:50.328Z,7.50
2018-09-28T12:28:50.539Z,6.80
2018-09-28T12:29:50.402Z,7.30
2018-09-28T12:30:50.579Z,6.50
2018-09-28T12:31:50.527Z,6.30
2018-09-28T12:32:50.621Z,6.50
2018-09-28T12:33:50.655Z,7.10
2018-09-28T12:34:50.712Z,6.50
2018-09-28T12:35:50.978Z,6.60
2018-09-28T12:36:50.910Z,6.80
2018-09-28T12:37:51.509Z,6.40
2018-09-28T12:38:51.165Z,6.20
2018-09-28T12:39:51.462Z,5.60
2018-09-28T12:40:52.315Z,5.50
2018-09-28T12:41:51.157Z,5.90
2018-09-28T12:42:51.301Z,5.40
2018-09-28T12:43:51.276Z,5.60
2018-09-28T12:44:51.480Z,5.70
2018-09-28T12:45:51.401Z,5.80
2018-09-28T12:46:51.664Z,5.30
2018-09-28T12:47:51.525Z,5.50
2018-09-28T12:48:51.659Z,4.90
2018-09-28T12:49:51.651Z,5.30
2018-09-28T12:50:51.713Z,5.00
2018-09-28T12:51:51.775Z,4.90
2018-09-28T12:52:51.838Z,4.70
2018-09-28T12:53:52.448Z,4.70
2018-09-28T12:54:52.013Z,4.60
2018-09-28T12:55:52.025Z,5.00
2018-09-28T12:56:52.177Z,4.60
2018-09-28T12:57:52.147Z,5.10
2018-09-28T12:58:52.208Z,4.70
2018-09-28T12:59:52.275Z,4.70
2018-09-28T13:00:52.423Z,4.40
2018-09-28T13:01:52.397Z,4.20
2018-09-28T13:02:52.530Z,4.40
2018-09-28T13:03:52.518Z,4.20
2018-09-28T13:04:52.580Z,4.20
2018-09-28T13:05:52.642Z,4.00
2018-09-28T13:06:52.706Z,4.00
2018-09-28T13:07:52.765Z,3.70
2018-09-28T13:08:52.832Z,3.70
2018-09-28T13:09:52.889Z,3.80
2018-09-28T13:10:52.949Z,3.60
2018-09-28T13:11:53.016Z,4.10
2018-09-28T13:12:53.075Z,3.90
2018-09-28T13:13:53.135Z,3.50
2018-09-28T13:14:53.223Z,3.80
2018-09-28T13:15:53.260Z,4.00
2018-09-28T13:16:53.321Z,3.70